Time;durP1;ratioP1;P1;durP2;ratioP2;P2;SDS_P1;SDS_P2;PMS_P1;PMS_P2;Temp;Humidity;BMP_temperature;BMP_pressure;BME280_temperature;BME280_humidity;BME280_pressure;Samples;Min_cycle;Max_cycle;Signal;HPM_P1;HPM_P2
2021/06/16 00:00:18;;;;;;;8.78;3.85;;;;;;;16.07;89.71;98878.56;1700194;84;21020;-86
2021/06/16 00:02:46;;;;;;;5.87;3.42;;;;;;;16.04;89.01;98873.02;1686950;84;21017;-86
2021/06/16 00:05:20;;;;;;;7.37;3.40;;;;;;;16.02;88.65;98875.34;1671933;85;21099;-87
2021/06/16 00:07:46;;;;;;;6.60;3.22;;;;;;;15.96;87.82;98869.95;1672032;85;21100;-86
2021/06/16 00:10:16;;;;;;;11.53;3.67;;;;;;;15.89;90.01;98865.92;1672026;85;21179;-87
2021/06/16 00:12:42;;;;;;;8.68;3.47;;;;;;;15.89;87.90;98876.41;1676574;84;21015;-87
2021/06/16 00:15:20;;;;;;;8.25;3.40;;;;;;;15.81;89.38;98878.11;1699986;84;21334;-87
2021/06/16 00:17:47;;;;;;;6.10;3.85;;;;;;;15.80;88.55;98876.89;1700139;82;20988;-87
2021/06/16 00:20:14;;;;;;;6.72;3.50;;;;;;;15.79;87.95;98876.02;1700216;84;21038;-87
2021/06/16 00:22:42;;;;;;;6.85;3.70;;;;;;;15.81;89.20;98878.58;1700109;84;21249;-87
2021/06/16 00:25:09;;;;;;;6.40;3.42;;;;;;;15.80;88.76;98883.45;1700214;84;21000;-87
2021/06/16 00:27:36;;;;;;;7.42;3.40;;;;;;;15.80;88.68;98875.11;1700055;84;21027;-87
2021/06/16 00:30:06;;;;;;;9.25;3.30;;;;;;;15.83;87.84;98871.02;1700110;84;21070;-88
2021/06/16 00:32:33;;;;;;;7.97;3.62;;;;;;;15.84;88.28;98869.27;1700186;84;21634;-86
2021/06/16 00:34:59;;;;;;;7.83;3.75;;;;;;;15.85;87.52;98874.88;1699934;84;21050;-87
2021/06/16 00:37:26;;;;;;;8.60;3.40;;;;;;;15.88;88.34;98876.88;1700014;84;21064;-87
2021/06/16 00:39:53;;;;;;;9.83;3.33;;;;;;;15.91;89.06;98870.63;1689415;84;21075;-87
2021/06/16 00:42:24;;;;;;;10.65;3.90;;;;;;;15.93;89.42;98866.16;1689127;85;20991;-87
2021/06/16 00:44:51;;;;;;;9.10;3.60;;;;;;;15.96;87.48;98866.02;1651672;86;21136;-87
2021/06/16 00:47:18;;;;;;;5.80;3.58;;;;;;;15.97;88.22;98865.07;1670736;85;21074;-87
2021/06/16 00:49:45;;;;;;;10.75;4.20;;;;;;;15.97;88.12;98857.67;1649286;87;21041;-86
2021/06/16 00:52:12;;;;;;;10.05;4.12;;;;;;;15.98;87.99;98868.09;1649323;87;21008;-86
2021/06/16 00:54:38;;;;;;;11.70;4.08;;;;;;;16.00;87.71;98870.17;1654787;87;21163;-87
2021/06/16 00:57:06;;;;;;;6.25;3.75;;;;;;;15.98;88.43;98868.09;1658228;87;21056;-87
2021/06/16 00:59:46;;;;;;;8.48;3.77;;;;;;;16.01;88.45;98867.08;1657616;87;21098;-87
2021/06/16 01:02:15;;;;;;;9.38;4.03;;;;;;;16.00;88.32;98864.09;1657870;86;21008;-87
2021/06/16 01:04:43;;;;;;;9.18;4.53;;;;;;;15.98;88.19;98861.54;1668907;85;21028;-86
2021/06/16 01:07:12;;;;;;;9.98;4.37;;;;;;;16.00;88.68;98871.48;1686451;83;21065;-86
2021/06/16 01:10:02;;;;;;;7.70;3.90;;;;;;;16.02;88.17;98872.25;1640462;87;21126;-86
2021/06/16 01:12:40;;;;;;;4.78;3.30;;;;;;;16.04;87.76;98867.78;1662262;86;21071;-93
2021/06/16 01:15:14;;;;;;;10.80;4.75;;;;;;;16.02;87.12;98861.77;1607079;85;21188;-93
2021/06/16 01:18:03;;;;;;;8.55;3.75;;;;;;;16.00;87.84;98860.16;1630580;88;21107;-85
2021/06/16 01:20:49;;;;;;;7.85;3.52;;;;;;;15.95;88.32;98863.47;1562844;90;21116;-86
2021/06/16 01:23:26;;;;;;;12.78;4.20;;;;;;;15.94;87.14;98860.48;1562196;90;21776;-87
2021/06/16 01:26:06;;;;;;;10.40;4.25;;;;;;;15.84;88.47;98857.47;1559328;91;21059;-86
2021/06/16 01:28:44;;;;;;;7.22;3.45;;;;;;;15.80;88.63;98853.30;1609787;88;21065;-93
2021/06/16 01:31:16;;;;;;;8.63;3.50;;;;;;;15.73;88.87;98847.97;1591317;89;21140;-93
2021/06/16 01:33:45;;;;;;;11.35;4.10;;;;;;;15.67;87.86;98859.58;1673317;84;21458;-91
2021/06/16 01:36:14;;;;;;;6.25;3.98;;;;;;;15.63;87.82;98856.25;1671698;85;21152;-88
2021/06/16 01:38:44;;;;;;;10.38;4.47;;;;;;;15.59;88.77;98854.70;1650838;86;21116;-92
2021/06/16 01:41:12;;;;;;;8.83;4.15;;;;;;;15.56;88.61;98853.56;1667856;85;21328;-87
2021/06/16 01:43:41;;;;;;;6.78;4.00;;;;;;;15.53;86.92;98864.66;1634542;84;21108;-92
2021/06/16 01:46:10;;;;;;;8.23;3.77;;;;;;;15.49;88.08;98867.41;1660385;84;21171;-93
2021/06/16 01:48:42;;;;;;;7.70;3.92;;;;;;;15.47;89.18;98872.34;1649833;83;21068;-92
2021/06/16 01:51:10;;;;;;;12.05;4.20;;;;;;;15.46;88.92;98870.66;1653733;85;21103;-91
2021/06/16 01:53:39;;;;;;;8.88;3.95;;;;;;;15.45;89.14;98864.55;1665534;83;21135;-92
2021/06/16 01:56:07;;;;;;;7.47;3.70;;;;;;;15.43;88.85;98868.18;1626306;83;21123;-92
2021/06/16 01:58:36;;;;;;;8.10;4.22;;;;;;;15.41;88.11;98874.80;1614280;84;21143;-92
2021/06/16 02:01:05;;;;;;;7.22;4.00;;;;;;;15.38;90.11;98871.47;1652326;84;21183;-92
2021/06/16 02:03:32;;;;;;;8.10;3.83;;;;;;;15.40;89.13;98872.24;1672547;84;21130;-91
2021/06/16 02:05:59;;;;;;;9.30;4.15;;;;;;;15.39;89.05;98871.41;1642656;86;21340;-92
2021/06/16 02:08:30;;;;;;;12.30;4.17;;;;;;;15.37;88.35;98871.94;1710774;81;21108;-92
2021/06/16 02:11:00;;;;;;;7.30;3.95;;;;;;;15.31;89.98;98873.08;1641493;81;21174;-92
2021/06/16 02:13:32;;;;;;;6.60;3.80;;;;;;;15.27;89.50;98884.62;1613840;84;21031;-88
2021/06/16 02:16:04;;;;;;;8.93;3.90;;;;;;;15.21;91.96;98888.84;1692973;83;21111;-92
2021/06/16 02:18:58;;;;;;;9.43;4.05;;;;;;;15.22;90.39;98886.63;1644894;81;21131;-92
2021/06/16 02:21:25;;;;;;;10.30;4.37;;;;;;;15.22;90.57;98887.06;1588301;90;21139;-87
2021/06/16 02:23:52;;;;;;;10.23;4.47;;;;;;;15.19;91.91;98873.67;1587622;86;21136;-87
2021/06/16 02:26:21;;;;;;;7.97;4.90;;;;;;;15.17;91.64;98868.97;1647057;86;21122;-91
2021/06/16 02:28:48;;;;;;;15.65;4.53;;;;;;;15.15;90.12;98876.05;1678255;83;21028;-87
2021/06/16 02:31:15;;;;;;;8.73;4.15;;;;;;;15.13;89.33;98887.05;1678611;84;21087;-87
2021/06/16 02:33:42;;;;;;;7.37;4.15;;;;;;;15.12;89.12;98890.61;1678778;85;21052;-87
2021/06/16 02:36:12;;;;;;;8.35;4.17;;;;;;;15.10;90.05;98888.52;1678862;86;21052;-87
2021/06/16 02:38:42;;;;;;;9.45;4.50;;;;;;;15.06;89.15;98893.48;1670397;85;21014;-86
2021/06/16 02:41:13;;;;;;;7.90;4.67;;;;;;;15.05;90.78;98891.34;1676248;86;21063;-86
2021/06/16 02:43:41;;;;;;;12.85;4.75;;;;;;;15.08;89.68;98895.57;1663007;86;21020;-86
2021/06/16 02:46:12;;;;;;;6.67;4.17;;;;;;;15.07;90.38;98901.27;1678161;86;21037;-86
2021/06/16 02:48:42;;;;;;;10.03;3.95;;;;;;;15.07;90.98;98898.66;1658424;86;21043;-88
2021/06/16 02:51:12;;;;;;;12.18;5.20;;;;;;;15.08;91.04;98896.87;1650521;87;21074;-88
2021/06/16 02:53:42;;;;;;;12.47;4.50;;;;;;;15.07;90.99;98899.12;1651801;86;21035;-86
2021/06/16 02:56:10;;;;;;;8.13;4.62;;;;;;;15.05;90.50;98897.04;1651933;86;21108;-87
2021/06/16 02:58:42;;;;;;;13.15;4.87;;;;;;;14.98;91.76;98900.41;1636229;86;21085;-86
2021/06/16 03:01:13;;;;;;;8.25;3.62;;;;;;;14.96;90.94;98914.47;1651158;87;21092;-87
2021/06/16 03:03:44;;;;;;;9.18;3.52;;;;;;;14.94;90.66;98919.80;1651252;87;21084;-86
2021/06/16 03:06:11;;;;;;;9.40;5.15;;;;;;;14.92;89.58;98911.14;1678475;85;21017;-87
2021/06/16 03:08:41;;;;;;;8.80;3.95;;;;;;;14.87;91.21;98913.13;1678834;84;21091;-87
2021/06/16 03:11:09;;;;;;;10.13;4.90;;;;;;;14.83;91.31;98918.96;1656644;87;21544;-86
2021/06/16 03:13:36;;;;;;;12.33;5.28;;;;;;;14.82;91.67;98915.97;1655989;86;21052;-86
2021/06/16 03:16:04;;;;;;;8.35;4.80;;;;;;;14.79;93.45;98910.02;1651119;87;21003;-86
2021/06/16 03:18:31;;;;;;;12.13;5.33;;;;;;;14.82;92.64;98910.73;1662001;86;21095;-85
2021/06/16 03:20:59;;;;;;;12.68;5.10;;;;;;;14.85;91.41;98909.27;1678385;86;21080;-87
2021/06/16 03:23:27;;;;;;;13.80;4.80;;;;;;;14.81;92.56;98908.18;1587289;83;21231;-93
2021/06/16 03:25:56;;;;;;;9.58;5.05;;;;;;;14.77;92.57;98912.70;1592150;83;21205;-93
2021/06/16 03:28:27;;;;;;;12.75;4.92;;;;;;;14.78;91.56;98911.80;1631859;85;21412;-91
2021/06/16 03:30:57;;;;;;;9.25;4.83;;;;;;;14.72;92.56;98921.20;1641538;84;21208;-93
2021/06/16 03:33:24;;;;;;;11.83;5.22;;;;;;;14.67;93.15;98917.95;1638602;84;21459;-93
2021/06/16 03:35:51;;;;;;;10.00;4.53;;;;;;;14.71;92.65;98924.28;1636702;86;21023;-92
2021/06/16 03:38:19;;;;;;;10.78;4.70;;;;;;;14.75;90.71;98928.93;1649064;82;21104;-92
2021/06/16 03:40:49;;;;;;;8.90;4.25;;;;;;;14.78;90.54;98926.19;1674375;81;21134;-92
2021/06/16 03:43:17;;;;;;;11.60;4.50;;;;;;;14.80;91.29;98924.35;1605390;84;21130;-93
2021/06/16 03:45:46;;;;;;;13.88;4.42;;;;;;;14.85;90.45;98931.52;1611430;87;21679;-93
2021/06/16 03:48:20;;;;;;;43.70;19.60;;;;;;;14.86;91.64;98935.84;1667020;84;21300;-93
2021/06/16 03:50:48;;;;;;;41.05;19.67;;;;;;;14.91;91.93;98939.09;1671491;82;21169;-92
2021/06/16 03:53:17;;;;;;;11.68;6.78;;;;;;;14.99;92.07;98940.52;1671827;83;21105;-93
2021/06/16 03:55:47;;;;;;;21.23;11.12;;;;;;;15.00;91.61;98951.36;1677776;83;21170;-93
2021/06/16 03:58:15;;;;;;;12.98;5.62;;;;;;;15.03;91.75;98953.39;1673639;81;21061;-86
2021/06/16 04:00:43;;;;;;;19.27;7.80;;;;;;;15.07;91.02;98960.66;1677258;81;21021;-90
2021/06/16 04:03:12;;;;;;;13.58;5.60;;;;;;;15.08;91.32;98954.48;1724140;83;21085;-86
2021/06/16 04:05:40;;;;;;;10.70;4.58;;;;;;;15.07;91.02;98951.48;1724098;83;21066;-87
2021/06/16 04:08:09;;;;;;;10.43;4.95;;;;;;;15.09;90.90;98960.12;1721322;83;20992;-87
2021/06/16 04:10:37;;;;;;;11.35;3.75;;;;;;;15.10;90.66;98956.13;1716261;84;21071;-86
2021/06/16 04:13:06;;;;;;;6.53;4.20;;;;;;;15.14;89.88;98959.90;1696131;84;20977;-86
2021/06/16 04:15:33;;;;;;;9.63;3.65;;;;;;;15.18;89.61;98961.02;1716350;84;21124;-85
2021/06/16 04:18:00;;;;;;;9.23;3.80;;;;;;;15.19;89.27;98963.17;1716319;84;21035;-87
2021/06/16 04:20:28;;;;;;;8.45;4.10;;;;;;;15.22;89.29;98971.73;1720657;83;20991;-86
2021/06/16 04:22:56;;;;;;;8.20;3.40;;;;;;;15.25;89.21;98970.27;1724097;83;20960;-85
2021/06/16 04:25:23;;;;;;;7.15;3.77;;;;;;;15.34;88.61;98957.66;1714709;82;21019;-92
2021/06/16 04:27:54;;;;;;;7.25;3.52;;;;;;;15.33;89.00;98952.89;1724188;83;21021;-87
2021/06/16 04:30:23;;;;;;;6.05;3.15;;;;;;;15.34;88.48;98949.81;1723934;83;21091;-86
2021/06/16 04:32:50;;;;;;;5.85;3.08;;;;;;;15.34;88.71;98955.92;1724081;83;21419;-86
2021/06/16 04:35:17;;;;;;;12.75;3.90;;;;;;;15.38;88.38;98959.22;1722807;83;21043;-88
2021/06/16 04:37:43;;;;;;;8.50;3.50;;;;;;;15.42;88.38;98959.02;1718530;83;21029;-86
2021/06/16 04:40:10;;;;;;;7.28;3.52;;;;;;;15.48;88.10;98967.06;1719729;83;21321;-86
2021/06/16 04:42:37;;;;;;;7.20;3.42;;;;;;;15.51;88.13;98965.59;1718609;82;21070;-86
2021/06/16 04:45:06;;;;;;;14.18;5.60;;;;;;;15.52;88.26;98967.30;1718603;83;20981;-88
2021/06/16 04:47:33;;;;;;;7.83;4.47;;;;;;;15.66;87.63;98975.82;1716321;83;21064;-86
2021/06/16 04:50:00;;;;;;;10.98;4.33;;;;;;;15.64;88.00;98969.33;1724007;83;21018;-87
2021/06/16 04:52:28;;;;;;;14.13;4.92;;;;;;;15.73;87.62;98973.77;1724155;83;21013;-87
2021/06/16 04:54:57;;;;;;;14.18;3.83;;;;;;;15.82;87.10;98977.27;1720723;83;21079;-84
2021/06/16 04:57:24;;;;;;;10.68;4.15;;;;;;;15.71;86.96;98942.36;1717555;82;21017;-87
2021/06/16 04:59:55;;;;;;;7.78;3.40;;;;;;;16.00;86.29;98986.86;1694888;84;21027;-86
2021/06/16 05:02:29;;;;;;;11.38;3.35;;;;;;;16.08;86.18;98991.26;1717826;82;21142;-87
2021/06/16 05:04:58;;;;;;;11.20;3.35;;;;;;;16.19;86.14;98991.18;1650305;84;21591;-85
2021/06/16 05:07:26;;;;;;;8.38;3.40;;;;;;;16.28;85.43;98998.13;1681712;82;21260;-87
2021/06/16 05:09:53;;;;;;;9.48;3.52;;;;;;;16.33;85.05;98997.05;1642834;87;21087;-86
2021/06/16 05:12:20;;;;;;;8.38;3.47;;;;;;;16.36;84.76;98998.22;1642896;87;21534;-85
2021/06/16 05:14:47;;;;;;;15.03;3.75;;;;;;;16.38;84.85;98991.96;1643035;87;21027;-86
2021/06/16 05:17:14;;;;;;;9.28;3.25;;;;;;;16.45;85.03;98994.67;1642803;87;21035;-86
2021/06/16 05:19:40;;;;;;;7.92;3.47;;;;;;;16.49;84.91;98997.52;1642847;87;21073;-85
2021/06/16 05:22:13;;;;;;;6.25;3.45;;;;;;;16.52;84.80;98999.14;1642737;87;21282;-86
2021/06/16 05:24:44;;;;;;;5.90;3.12;;;;;;;16.64;84.62;99000.28;1656260;86;21299;-86
2021/06/16 05:27:14;;;;;;;6.55;3.52;;;;;;;16.64;84.69;99002.91;1642719;87;21054;-86
2021/06/16 05:29:45;;;;;;;12.80;5.20;;;;;;;16.66;84.62;99004.52;1643143;87;21035;-87
2021/06/16 05:32:13;;;;;;;11.83;4.42;;;;;;;16.73;84.33;99001.10;1637983;87;21167;-87
2021/06/16 05:34:40;;;;;;;8.73;3.85;;;;;;;16.74;84.35;98998.04;1613221;89;21082;-87
2021/06/16 05:37:10;;;;;;;6.40;3.37;;;;;;;16.78;84.15;98999.58;1610858;89;21121;-85
2021/06/16 05:39:38;;;;;;;6.53;3.75;;;;;;;16.82;84.04;99009.86;1652578;87;21091;-87
2021/06/16 05:42:05;;;;;;;7.12;3.30;;;;;;;16.93;83.56;99011.06;1671229;85;21023;-86
2021/06/16 05:44:32;;;;;;;6.75;3.52;;;;;;;17.01;83.16;99001.00;1637693;87;21021;-88
2021/06/16 05:46:59;;;;;;;13.15;3.72;;;;;;;17.05;82.74;98998.59;1649906;87;21072;-87
2021/06/16 05:49:26;;;;;;;8.73;3.33;;;;;;;17.05;83.02;98996.84;1652558;87;21062;-87
2021/06/16 05:51:53;;;;;;;9.85;4.12;;;;;;;17.15;82.94;98993.70;1652685;87;21031;-87
2021/06/16 05:54:21;;;;;;;8.45;3.80;;;;;;;17.26;82.70;98998.77;1652553;87;21008;-90
2021/06/16 05:59:33;;;;;;;6.97;3.47;;;;;;;17.41;82.47;99004.14;1674940;86;21193;-94
2021/06/16 06:02:01;;;;;;;12.88;4.60;;;;;;;17.45;82.21;99000.41;1699939;83;20988;-89
2021/06/16 06:04:28;;;;;;;7.95;4.30;;;;;;;17.53;82.06;98996.89;1682649;85;21061;-86
2021/06/16 06:06:55;;;;;;;9.65;4.12;;;;;;;17.60;81.75;98989.03;1679336;84;21265;-87
2021/06/16 06:09:22;;;;;;;8.10;4.45;;;;;;;17.59;81.46;98989.14;1705632;83;21013;-86
2021/06/16 06:11:48;;;;;;;11.25;4.47;;;;;;;17.62;81.28;98996.36;1707768;83;21042;-86
2021/06/16 06:14:15;;;;;;;9.38;3.92;;;;;;;17.69;81.06;98997.73;1674757;84;21054;-85
2021/06/16 06:16:42;;;;;;;11.73;3.55;;;;;;;17.79;81.13;98995.44;1668453;84;21054;-86
2021/06/16 06:19:09;;;;;;;12.78;4.75;;;;;;;17.94;81.09;98997.69;1674536;84;21063;-86
2021/06/16 06:21:35;;;;;;;11.55;4.30;;;;;;;18.07;80.00;98986.85;1677872;84;21015;-86
2021/06/16 06:24:04;;;;;;;10.40;4.08;;;;;;;18.08;80.16;98995.58;1677739;84;21336;-84
2021/06/16 06:26:33;;;;;;;8.15;4.20;;;;;;;18.19;80.04;98991.03;1671320;84;21082;-86
2021/06/16 06:41:19;;;;;;;15.55;5.60;;;;;;;18.86;78.62;98984.42;1691126;83;21059;-88
2021/06/16 06:43:46;;;;;;;7.92;4.10;;;;;;;19.05;78.20;98981.48;1690754;82;21075;-92
2021/06/16 06:46:14;;;;;;;13.40;5.25;;;;;;;19.15;77.66;98983.56;1685804;84;21006;-89
2021/06/16 06:48:45;;;;;;;7.35;3.60;;;;;;;19.19;76.94;98981.95;1686420;82;21007;-88
2021/06/16 06:54:10;;;;;;;8.43;4.08;;;;;;;19.42;76.13;98975.72;1693420;80;21035;-90
2021/06/16 06:56:39;;;;;;;7.28;3.60;;;;;;;19.57;76.12;98974.72;1685753;81;21283;-87
2021/06/16 07:01:59;;;;;;;8.60;3.35;;;;;;;19.82;75.40;98970.07;1727937;81;21129;-73
2021/06/16 07:04:26;;;;;;;6.75;3.70;;;;;;;19.95;74.92;98971.42;1735484;81;21482;-74
2021/06/16 07:06:53;;;;;;;10.58;3.47;;;;;;;20.08;73.29;98981.19;1743594;81;20941;-78
2021/06/16 07:09:20;;;;;;;6.08;3.60;;;;;;;20.25;74.57;98972.97;1752137;81;21569;-78
2021/06/16 07:11:47;;;;;;;8.03;3.62;;;;;;;20.39;72.36;98969.41;1740356;81;21107;-78
2021/06/16 07:14:14;;;;;;;7.65;3.58;;;;;;;20.55;71.42;98967.89;1749206;81;21524;-77
2021/06/16 07:16:41;;;;;;;6.47;3.37;;;;;;;20.70;71.33;98968.20;1746572;81;20959;-77
2021/06/16 07:19:08;;;;;;;8.13;3.50;;;;;;;20.85;72.41;98973.75;1736825;81;21045;-78
2021/06/16 07:21:34;;;;;;;6.90;3.20;;;;;;;20.97;71.51;98967.22;1727676;81;21466;-76
2021/06/16 07:24:04;;;;;;;7.45;3.45;;;;;;;21.09;71.28;98967.71;1738804;81;21004;-78
2021/06/16 07:26:30;;;;;;;9.63;3.60;;;;;;;21.24;70.36;98970.56;1743990;81;20932;-76
2021/06/16 07:28:57;;;;;;;9.63;3.47;;;;;;;21.36;66.64;98971.98;1749412;81;21053;-72
2021/06/16 07:31:23;;;;;;;10.15;3.58;;;;;;;21.47;68.12;98972.09;1739710;81;20963;-69
2021/06/16 07:33:50;;;;;;;6.97;3.77;;;;;;;21.58;67.25;98966.85;1747161;81;22020;-70
2021/06/16 07:36:16;;;;;;;7.05;3.72;;;;;;;21.73;68.08;98964.91;1732596;81;21018;-69
2021/06/16 07:38:43;;;;;;;6.30;4.15;;;;;;;21.88;62.82;98965.56;1740350;81;21881;-70
2021/06/16 07:41:10;;;;;;;7.05;4.10;;;;;;;22.03;63.70;98965.77;1732510;81;20975;-72
2021/06/16 07:43:36;;;;;;;7.05;3.80;;;;;;;22.14;64.34;98964.94;1742836;81;21677;-70
2021/06/16 07:46:03;;;;;;;9.50;4.35;;;;;;;22.30;65.13;98962.02;1730743;81;20956;-69
2021/06/16 07:48:30;;;;;;;9.50;4.17;;;;;;;22.51;63.38;98961.37;1723450;82;20976;-69
2021/06/16 07:50:56;;;;;;;6.75;4.10;;;;;;;22.73;64.23;98955.25;1724153;81;21010;-71
2021/06/16 07:53:23;;;;;;;7.58;4.37;;;;;;;22.91;63.85;98949.83;1684645;84;21031;-72
2021/06/16 07:55:52;;;;;;;8.98;4.70;;;;;;;23.03;63.16;98952.88;1723040;82;21604;-69
2021/06/16 07:58:19;;;;;;;9.68;4.53;;;;;;;23.14;61.60;98956.02;1735911;81;21276;-70
2021/06/16 08:00:46;;;;;;;8.80;4.83;;;;;;;23.24;62.27;98950.83;1693494;82;21067;-68
2021/06/16 08:03:12;;;;;;;7.25;4.80;;;;;;;23.36;61.02;98960.94;1658974;84;21559;-69
2021/06/16 08:05:39;;;;;;;9.43;4.47;;;;;;;23.46;61.11;98948.62;1655633;84;21549;-67
2021/06/16 08:08:07;;;;;;;11.78;5.45;;;;;;;23.57;61.04;98948.57;1640071;86;21016;-70
2021/06/16 08:10:34;;;;;;;6.85;4.62;;;;;;;23.70;61.27;98949.75;1664840;85;21012;-67
2021/06/16 08:13:00;;;;;;;8.88;4.92;;;;;;;23.83;59.58;98960.23;1658805;85;20987;-69
2021/06/16 08:15:27;;;;;;;15.35;8.43;;;;;;;23.92;59.50;98964.80;1690102;83;21011;-70
2021/06/16 08:17:55;;;;;;;8.00;4.65;;;;;;;24.00;60.08;98962.34;1719505;81;20932;-70
2021/06/16 08:20:22;;;;;;;6.47;4.78;;;;;;;24.02;53.30;98967.04;1715016;82;21159;-71
2021/06/16 08:22:49;;;;;;;6.75;4.80;;;;;;;24.11;56.77;98976.53;1722645;82;21063;-69
2021/06/16 08:25:16;;;;;;;9.43;4.65;;;;;;;24.15;56.16;98969.53;1746328;81;21039;-68
2021/06/16 08:27:43;;;;;;;6.83;5.08;;;;;;;24.25;57.47;98974.06;1752420;82;21467;-70
2021/06/16 08:30:12;;;;;;;6.42;4.75;;;;;;;24.35;57.64;98970.52;1750272;82;21023;-69
2021/06/16 08:32:40;;;;;;;7.15;4.95;;;;;;;24.48;56.93;98973.46;1729378;81;21424;-70
2021/06/16 08:35:08;;;;;;;7.92;5.78;;;;;;;24.59;55.58;98973.41;1727765;80;21879;-69
2021/06/16 08:37:35;;;;;;;9.38;5.20;;;;;;;24.58;53.98;98977.05;1723203;82;21621;-70
2021/06/16 08:40:04;;;;;;;7.58;5.08;;;;;;;24.65;51.66;98989.32;1702715;81;21053;-69
2021/06/16 08:42:31;;;;;;;6.85;4.67;;;;;;;24.66;52.53;98985.70;1714617;83;20960;-69
2021/06/16 08:44:58;;;;;;;7.08;4.83;;;;;;;24.75;53.95;98987.09;1715578;81;21879;-73
2021/06/16 08:47:25;;;;;;;8.73;4.70;;;;;;;24.81;51.31;98991.05;1728252;81;20941;-75
2021/06/16 08:49:53;;;;;;;7.15;5.00;;;;;;;24.78;52.10;98984.65;1722567;81;20999;-74
2021/06/16 08:52:21;;;;;;;12.93;4.75;;;;;;;24.69;50.17;98982.30;1717896;81;21018;-71
2021/06/16 08:54:48;;;;;;;7.30;4.17;;;;;;;24.81;51.97;98985.23;1712084;82;21094;-72
2021/06/16 08:57:14;;;;;;;11.12;4.28;;;;;;;24.93;49.79;98983.80;1714576;81;21051;-73
2021/06/16 08:59:41;;;;;;;6.15;4.30;;;;;;;24.95;48.31;98988.53;1721601;81;20999;-69
2021/06/16 09:02:09;;;;;;;6.20;4.20;;;;;;;24.96;48.23;98984.88;1715235;81;21071;-71
2021/06/16 09:04:47;;;;;;;8.03;4.20;;;;;;;24.99;48.42;98980.64;1719014;81;20991;-71
2021/06/16 09:07:26;;;;;;;6.83;3.90;;;;;;;24.97;47.21;98994.06;1709676;81;20976;-72
2021/06/16 09:10:18;;;;;;;7.05;4.50;;;;;;;25.00;48.47;98989.79;1720085;81;21471;-71
2021/06/16 09:12:56;;;;;;;5.50;4.03;;;;;;;25.00;48.96;98995.11;1716198;81;21491;-72
2021/06/16 09:15:27;;;;;;;7.47;3.90;;;;;;;25.04;48.47;98995.69;1707287;81;21519;-71
2021/06/16 09:18:09;;;;;;;6.28;2.98;;;;;;;25.12;48.90;99001.68;1714512;81;21036;-72
2021/06/16 09:20:44;;;;;;;7.15;3.60;;;;;;;25.13;46.16;99003.37;1714353;82;21534;-73
2021/06/16 09:23:16;;;;;;;5.60;3.60;;;;;;;25.19;48.10;99002.84;1724846;81;21081;-73
2021/06/16 09:25:45;;;;;;;7.05;3.55;;;;;;;25.26;46.43;98998.68;1727801;81;21010;-71
2021/06/16 09:28:11;;;;;;;5.00;3.50;;;;;;;25.17;46.82;99001.64;1721212;81;20944;-70
2021/06/16 09:30:43;;;;;;;6.17;3.70;;;;;;;25.22;47.52;99000.42;1716066;81;21396;-70
2021/06/16 09:33:16;;;;;;;6.53;4.08;;;;;;;25.24;47.55;99007.78;1705625;81;21078;-70
2021/06/16 09:35:48;;;;;;;5.70;3.45;;;;;;;25.36;47.96;99000.88;1710704;82;21285;-70
2021/06/16 09:38:25;;;;;;;5.77;4.10;;;;;;;25.41;46.67;99000.50;1719583;81;21052;-70
2021/06/16 09:40:54;;;;;;;8.30;3.70;;;;;;;25.51;47.98;99003.19;1713167;81;21074;-70
2021/06/16 09:43:22;;;;;;;5.08;3.62;;;;;;;25.53;47.77;99001.23;1750193;80;21008;-70
2021/06/16 09:46:01;;;;;;;5.90;3.70;;;;;;;25.51;46.42;99000.03;1717224;81;21079;-71
2021/06/16 09:48:43;;;;;;;8.13;3.87;;;;;;;25.65;48.21;98997.97;1708866;81;21012;-70
2021/06/16 09:51:20;;;;;;;5.95;3.67;;;;;;;25.83;48.78;98990.16;1716254;81;21039;-70
2021/06/16 09:54:15;;;;;;;4.95;3.42;;;;;;;26.01;47.77;98993.00;1720709;82;21019;-71
2021/06/16 09:56:59;;;;;;;11.68;4.22;;;;;;;26.06;47.42;98989.41;1600525;87;21372;-70
2021/06/16 09:59:41;;;;;;;5.58;3.80;;;;;;;26.27;47.78;98993.28;1701857;81;21007;-71
2021/06/16 10:02:20;;;;;;;7.40;3.83;;;;;;;26.44;47.77;98988.57;1706747;81;21058;-71
2021/06/16 10:05:06;;;;;;;7.95;5.62;;;;;;;26.52;46.88;98995.83;1683113;84;20983;-70
2021/06/16 10:07:29;;;;;;;16.05;4.22;;;;;;;26.50;47.25;99003.13;1691693;82;21495;-71
2021/06/16 10:10:08;;;;;;;9.60;3.62;;;;;;;26.64;46.95;98985.88;1706031;82;21003;-70
2021/06/16 10:12:40;;;;;;;5.83;3.50;;;;;;;26.69;45.82;98995.63;1704957;82;21034;-70
2021/06/16 10:15:10;;;;;;;6.80;3.67;;;;;;;26.82;46.82;98988.17;1706383;82;21015;-69
2021/06/16 10:17:37;;;;;;;6.30;3.62;;;;;;;26.86;46.23;98988.70;1691290;82;20972;-70
2021/06/16 10:20:07;;;;;;;5.70;3.37;;;;;;;27.00;46.30;98990.92;1699597;82;21626;-72
2021/06/16 10:22:35;;;;;;;6.15;3.50;;;;;;;27.07;45.31;98991.16;1713120;82;21020;-86
2021/06/16 10:25:03;;;;;;;6.50;3.58;;;;;;;27.12;44.41;98992.41;1708953;82;21180;-83
2021/06/16 10:27:44;;;;;;;5.90;3.60;;;;;;;27.25;44.43;98989.92;1703044;82;21113;-85
2021/06/16 10:30:13;;;;;;;5.12;3.50;;;;;;;27.33;44.19;98992.69;1677171;84;21067;-80
2021/06/16 10:32:44;;;;;;;7.17;3.08;;;;;;;27.42;44.41;98998.98;1722185;82;21589;-84
2021/06/16 10:35:17;;;;;;;3.65;2.72;;;;;;;27.53;44.35;98994.25;1697636;82;21381;-83
2021/06/16 10:37:45;;;;;;;4.22;3.02;;;;;;;27.77;44.75;98988.37;1708237;82;21154;-83
2021/06/16 10:40:25;;;;;;;4.40;2.75;;;;;;;28.00;44.79;98985.27;1723219;82;21023;-82
2021/06/16 10:43:10;;;;;;;4.47;2.90;;;;;;;28.06;43.82;98988.67;1716497;82;21334;-89
2021/06/16 10:45:40;;;;;;;5.25;3.22;;;;;;;27.94;42.26;98990.72;1711625;82;21082;-85
2021/06/16 10:48:10;;;;;;;5.35;2.50;;;;;;;28.08;43.63;98980.00;1717771;82;21114;-83
2021/06/16 10:50:51;;;;;;;5.20;3.00;;;;;;;28.04;43.10;98982.64;1704896;83;21038;-87
2021/06/16 10:53:25;;;;;;;5.50;2.90;;;;;;;28.13;43.96;98983.54;1706543;84;21062;-89
2021/06/16 10:56:00;;;;;;;4.15;2.70;;;;;;;28.10;43.64;98977.19;1711404;82;21204;-88
2021/06/16 10:58:45;;;;;;;8.18;3.08;;;;;;;28.18;41.23;98976.42;1712506;82;21069;-81
2021/06/16 11:01:17;;;;;;;5.30;2.90;;;;;;;28.17;43.34;98970.21;1706441;82;21072;-83
2021/06/16 11:03:55;;;;;;;5.58;2.77;;;;;;;28.16;43.47;98970.72;1708340;83;21176;-84
2021/06/16 11:06:36;;;;;;;8.68;3.30;;;;;;;28.08;43.16;98969.81;1712648;82;21014;-83
2021/06/16 11:09:10;;;;;;;5.25;2.80;;;;;;;28.07;42.64;98972.99;1682538;84;21081;-83
2021/06/16 11:12:01;;;;;;;4.28;3.02;;;;;;;28.13;43.71;98972.84;1717743;82;21027;-85
2021/06/16 11:14:39;;;;;;;6.60;3.10;;;;;;;28.15;42.90;98969.53;1709691;82;21030;-82
2021/06/16 11:17:12;;;;;;;7.05;2.80;;;;;;;28.15;42.26;98966.85;1702670;84;21609;-80
2021/06/16 11:19:42;;;;;;;4.28;2.62;;;;;;;28.38;43.46;98971.23;1685493;82;21543;-82
2021/06/16 11:22:17;;;;;;;13.08;7.08;;;;;;;28.59;42.48;98969.58;1713440;82;21003;-82
2021/06/16 11:25:16;;;;;;;7.22;3.20;;;;;;;28.61;42.18;98963.58;1704200;82;21000;-81
2021/06/16 11:27:56;;;;;;;6.05;2.60;;;;;;;28.81;42.37;98957.98;1708288;82;21039;-86
2021/06/16 11:30:54;;;;;;;4.95;2.60;;;;;;;29.06;41.31;98962.98;1701870;84;21059;-81
2021/06/16 11:33:28;;;;;;;4.30;2.37;;;;;;;29.34;40.52;98956.92;1697161;84;21720;-82
2021/06/16 11:36:03;;;;;;;6.85;2.40;;;;;;;29.59;39.31;98957.84;1708339;84;21032;-82
2021/06/16 11:38:34;;;;;;;3.25;1.90;;;;;;;29.77;39.92;98954.23;1710589;82;21148;-82
2021/06/16 11:41:18;;;;;;;4.15;2.60;;;;;;;29.80;39.65;98952.04;1712836;83;21020;-84
2021/06/16 11:44:00;;;;;;;3.55;2.20;;;;;;;30.03;38.27;98956.27;1706047;84;21040;-80
2021/06/16 11:46:31;;;;;;;3.05;1.98;;;;;;;30.29;38.32;98958.77;1701283;84;21050;-80
2021/06/16 11:49:20;;;;;;;4.70;2.90;;;;;;;30.07;37.53;98952.75;1700100;84;21609;-80
2021/06/16 11:51:51;;;;;;;5.28;2.35;;;;;;;30.02;38.02;98945.70;1706035;84;21582;-80
2021/06/16 11:54:38;;;;;;;4.97;2.58;;;;;;;30.16;37.90;98932.96;1709863;82;21055;-81
2021/06/16 11:57:04;;;;;;;4.10;2.33;;;;;;;30.41;37.54;98937.02;1709549;83;21047;-81
2021/06/16 11:59:41;;;;;;;4.40;2.15;;;;;;;30.52;37.45;98927.25;1714336;82;22439;-78
2021/06/16 12:02:18;;;;;;;3.00;1.98;;;;;;;30.69;37.48;98923.53;1713807;82;21038;-80
2021/06/16 12:04:46;;;;;;;4.85;2.35;;;;;;;30.77;37.08;98924.53;1727077;81;21558;-79
2021/06/16 12:07:26;;;;;;;3.52;2.02;;;;;;;30.79;37.12;98921.16;1728410;81;21132;-79